Time;durP1;ratioP1;P1;durP2;ratioP2;P2;SDS_P1;SDS_P2;PMS_P1;PMS_P2;Temp;Humidity;BMP_temperature;BMP_pressure;BME280_temperature;BME280_humidity;BME280_pressure;Samples;Min_cycle;Max_cycle;Signal;HPM_P1;HPM_P2
2022/11/07 00:01:56;;;;;;;;;;;9.90;65.70;;;5.00;100.00;95642.53;4993644;28;19924;-48
2022/11/07 00:04:22;;;;;;;;;;;9.90;66.00;;;5.06;100.00;95640.84;4993892;28;19996;-50
2022/11/07 00:06:48;;;;;;;;;;;9.90;66.20;;;5.08;100.00;95651.97;4996780;28;19996;-49
2022/11/07 00:09:17;;;;;;;;;;;9.90;66.30;;;5.08;100.00;95642.22;4992989;28;20348;-48
2022/11/07 00:11:46;;;;;;;;;;;9.80;66.20;;;5.06;100.00;95632.91;5000115;28;19910;-48
2022/11/07 00:14:14;;;;;;;;;;;9.80;66.20;;;5.01;100.00;95630.13;5003883;28;19952;-48
2022/11/07 00:16:40;;;;;;;;;;;9.80;66.20;;;4.94;100.00;95630.25;5002316;28;19917;-52
2022/11/07 00:19:06;;;;;;;;;;;9.70;66.20;;;4.90;100.00;95634.38;5004744;28;19909;-48
2022/11/07 00:21:32;;;;;;;;;;;9.70;66.20;;;4.91;100.00;95645.75;4993040;28;19964;-48
2022/11/07 00:23:58;;;;;;;;;;;9.70;66.40;;;4.88;100.00;95631.97;4993469;28;19913;-48
2022/11/07 00:26:33;;;;;;;;;;;9.70;66.40;;;4.85;100.00;95629.78;4984050;28;19949;-48
2022/11/07 00:28:58;;;;;;;;;;;9.70;66.50;;;4.90;100.00;95631.75;5001887;28;19955;-50
2022/11/07 00:31:24;;;;;;;;;;;9.60;66.50;;;4.88;100.00;95637.22;4993646;28;19949;-48
2022/11/07 00:33:51;;;;;;;;;;;9.60;66.60;;;4.90;100.00;95655.50;5008768;28;19916;-51
2022/11/07 00:36:21;;;;;;;;;;;9.60;66.60;;;4.98;100.00;95649.06;5002488;28;19916;-48
2022/11/07 00:38:56;;;;;;;;;;;9.60;66.80;;;4.99;100.00;95648.88;4993669;28;19992;-48
2022/11/07 00:41:28;;;;;;;;;;;9.70;66.90;;;5.03;100.00;95654.50;4992643;28;19956;-48
2022/11/07 00:43:53;;;;;;;;;;;9.70;66.90;;;5.03;100.00;95649.22;4983384;28;19909;-49
2022/11/07 00:46:20;;;;;;;;;;;9.70;66.90;;;5.03;100.00;95642.09;4993379;28;19924;-53
2022/11/07 00:48:46;;;;;;;;;;;9.70;66.90;;;5.05;100.00;95639.22;4994123;28;19913;-49
2022/11/07 00:51:30;;;;;;;;;;;9.70;66.90;;;5.06;100.00;95638.19;5012621;28;19908;-48
2022/11/07 00:53:56;;;;;;;;;;;9.70;66.90;;;5.07;100.00;95643.22;5008293;28;19909;-48
2022/11/07 00:56:28;;;;;;;;;;;9.70;67.00;;;5.16;100.00;95648.19;5011321;28;19932;-53
2022/11/07 00:58:58;;;;;;;;;;;9.80;67.20;;;5.21;100.00;95656.25;5008604;28;19956;-48
2022/11/07 01:01:29;;;;;;;;;;;9.80;67.20;;;5.26;100.00;95653.69;4991266;28;19913;-49
2022/11/07 01:06:51;;;;;;;;;;;9.90;67.30;;;5.34;100.00;95653.38;5000178;28;20287;-49
2022/11/07 01:09:22;;;;;;;;;;;10.00;67.30;;;5.40;100.00;95656.94;5011271;28;19909;-48
2022/11/07 01:11:57;;;;;;;;;;;10.00;67.40;;;5.47;100.00;95655.78;4990808;28;19969;-48
2022/11/07 01:14:29;;;;;;;;;;;10.10;67.40;;;5.56;100.00;95661.53;5010977;28;19999;-48
2022/11/07 01:17:03;;;;;;;;;;;10.20;67.40;;;5.64;100.00;95665.63;5000933;28;19914;-50
2022/11/07 01:19:32;;;;;;;;;;;10.30;67.40;;;5.65;100.00;95669.91;5010172;28;19920;-56
2022/11/07 01:21:57;;;;;;;;;;;10.30;67.30;;;5.73;100.00;95672.19;5010920;28;20134;-48
2022/11/07 01:24:26;;;;;;;;;;;10.40;67.30;;;5.82;100.00;95664.72;5000773;28;20386;-49
2022/11/07 01:26:55;;;;;;;;;;;10.50;67.40;;;5.87;100.00;95673.56;4994712;28;19940;-49
2022/11/07 01:29:21;;;;;;;;;;;10.50;67.30;;;5.95;100.00;95665.28;5008548;28;19909;-50
2022/11/07 01:31:47;;;;;;;;;;;10.60;67.30;;;5.98;100.00;95658.72;4993746;28;20333;-55
2022/11/07 01:34:14;;;;;;;;;;;10.70;67.30;;;5.96;100.00;95658.19;4994540;28;20011;-48
2022/11/07 01:36:45;;;;;;;;;;;10.70;67.20;;;6.02;100.00;95654.59;4993178;28;20032;-49
2022/11/07 01:39:23;;;;;;;;;;;10.70;67.20;;;6.09;100.00;95655.25;4982318;28;20287;-49
2022/11/07 01:41:49;;;;;;;;;;;10.70;67.00;;;6.12;100.00;95656.66;4982594;28;20416;-49
2022/11/07 01:44:14;;;;;;;;;;;10.80;67.20;;;6.17;100.00;95662.84;5010182;28;19959;-51
2022/11/07 01:46:44;;;;;;;;;;;10.80;67.10;;;6.21;100.00;95663.19;5009850;28;19948;-48
2022/11/07 01:49:34;;;;;;;;;;;10.80;67.10;;;6.21;100.00;95661.31;5010789;28;19970;-48
2022/11/07 01:52:07;;;;;;;;;;;10.90;67.00;;;6.19;100.00;95654.66;4993546;28;19913;-51
2022/11/07 01:55:05;;;;;;;;;;;10.80;66.90;;;6.12;100.00;95659.28;5006001;28;20359;-48
2022/11/07 01:57:44;;;;;;;;;;;10.80;66.80;;;6.05;100.00;95653.31;5011982;28;19916;-48
2022/11/07 02:00:15;;;;;;;;;;;10.70;66.70;;;5.97;100.00;95651.84;4980260;28;19909;-48
2022/11/07 02:03:00;;;;;;;;;;;10.70;66.70;;;5.87;100.00;95644.47;4988083;28;20011;-48
2022/11/07 02:06:14;;;;;;;;;;;10.60;66.60;;;5.78;100.00;95643.22;4984471;28;19952;-48
2022/11/07 02:08:42;;;;;;;;;;;10.50;66.60;;;5.63;100.00;95646.34;4999075;28;20012;-48
2022/11/07 02:11:16;;;;;;;;;;;10.40;66.60;;;5.56;100.00;95641.19;4986393;28;19910;-48
2022/11/07 02:13:45;;;;;;;;;;;10.30;66.60;;;5.50;100.00;95639.47;4984673;28;19909;-49
2022/11/07 02:16:11;;;;;;;;;;;10.30;66.70;;;5.44;100.00;95650.16;4988519;28;19913;-48
2022/11/07 02:18:42;;;;;;;;;;;10.20;66.70;;;5.35;100.00;95644.41;5001706;28;19909;-48
2022/11/07 02:21:53;;;;;;;;;;;10.10;66.70;;;5.23;100.00;95638.31;5009229;28;19917;-50
2022/11/07 02:24:31;;;;;;;;;;;10.00;66.60;;;5.10;100.00;95632.22;4997868;28;19919;-49
2022/11/07 02:27:18;;;;;;;;;;;9.90;66.70;;;4.97;100.00;95637.72;5011278;28;19916;-49
2022/11/07 02:29:52;;;;;;;;;;;9.80;66.70;;;4.93;100.00;95641.84;4990634;28;19915;-48
2022/11/07 02:32:18;;;;;;;;;;;9.70;66.70;;;4.88;100.00;95628.53;5009584;28;20395;-48
2022/11/07 02:35:03;;;;;;;;;;;9.70;66.90;;;4.79;100.00;95629.88;5006732;28;19913;-49
2022/11/07 02:37:36;;;;;;;;;;;9.60;66.90;;;4.71;100.00;95622.31;4991524;28;19916;-53
2022/11/07 02:40:09;;;;;;;;;;;9.60;67.00;;;4.66;100.00;95622.97;5009788;28;19909;-48
2022/11/07 02:42:44;;;;;;;;;;;9.50;67.00;;;4.61;100.00;95625.50;4997728;28;19913;-53
2022/11/07 02:45:34;;;;;;;;;;;9.40;67.10;;;4.56;100.00;95623.53;5009951;28;20427;-53
2022/11/07 02:48:00;;;;;;;;;;;9.40;67.20;;;4.59;100.00;95624.91;4991336;28;20051;-52
2022/11/07 02:50:31;;;;;;;;;;;9.30;67.30;;;4.58;100.00;95629.38;5009165;28;20020;-48
2022/11/07 02:53:00;;;;;;;;;;;9.30;67.40;;;4.58;100.00;95621.47;5005002;28;19933;-48
2022/11/07 02:55:25;;;;;;;;;;;9.30;67.50;;;4.62;100.00;95624.47;5009877;28;20059;-48
2022/11/07 02:57:57;;;;;;;;;;;9.30;67.60;;;4.59;100.00;95628.34;5010335;28;20000;-48
2022/11/07 03:00:23;;;;;;;;;;;9.30;67.70;;;4.57;100.00;95629.59;4991787;28;20009;-48
2022/11/07 03:02:48;;;;;;;;;;;9.20;67.60;;;4.52;100.00;95635.56;5009481;28;20031;-48
2022/11/07 03:05:19;;;;;;;;;;;9.20;67.60;;;4.53;100.00;95631.09;4994607;28;19910;-48
2022/11/07 03:07:47;;;;;;;;;;;9.20;67.50;;;4.49;100.00;95635.22;5000158;28;19913;-50
2022/11/07 03:10:16;;;;;;;;;;;9.20;67.50;;;4.45;100.00;95640.13;5009194;28;19909;-52
2022/11/07 03:12:48;;;;;;;;;;;9.20;67.60;;;4.44;100.00;95648.25;5005318;28;19954;-48
2022/11/07 03:15:19;;;;;;;;;;;9.20;67.60;;;4.51;100.00;95643.69;5009464;28;20340;-48
2022/11/07 03:17:45;;;;;;;;;;;9.10;67.70;;;4.54;100.00;95641.41;4996850;28;20377;-49
2022/11/07 03:20:11;;;;;;;;;;;9.10;67.80;;;4.49;100.00;95637.84;5009390;23;19970;-49
2022/11/07 03:22:37;;;;;;;;;;;9.10;67.80;;;4.45;100.00;95645.41;4993636;28;19917;-52
2022/11/07 03:25:05;;;;;;;;;;;9.10;67.70;;;4.32;100.00;95638.44;5001551;28;19916;-48
2022/11/07 03:27:31;;;;;;;;;;;9.10;67.60;;;4.25;100.00;95647.50;5010890;28;19913;-47
2022/11/07 03:29:59;;;;;;;;;;;9.10;67.60;;;4.17;100.00;95651.25;5009089;28;20359;-48
2022/11/07 03:32:25;;;;;;;;;;;9.00;67.50;;;4.14;100.00;95655.13;4990417;28;19913;-48
2022/11/07 03:34:54;;;;;;;;;;;9.00;67.50;;;4.07;100.00;95656.22;5008663;28;19909;-49
2022/11/07 03:37:22;;;;;;;;;;;8.90;67.50;;;4.07;100.00;95656.22;5010733;28;19920;-51
2022/11/07 03:39:48;;;;;;;;;;;8.90;67.60;;;4.07;100.00;95666.78;4992816;28;20375;-47
2022/11/07 03:42:20;;;;;;;;;;;8.80;67.60;;;4.01;100.00;95655.31;4991761;28;20014;-50
2022/11/07 03:44:46;;;;;;;;;;;8.80;67.60;;;3.96;100.00;95657.00;4993007;28;19962;-50
2022/11/07 03:47:11;;;;;;;;;;;8.70;68.40;;;3.93;100.00;95656.41;5003209;28;20355;-50
2022/11/07 03:49:37;;;;;;;;;;;8.70;67.70;;;3.94;100.00;95652.72;5009252;28;19959;-51
2022/11/07 03:52:03;;;;;;;;;;;8.70;67.80;;;3.90;100.00;95650.75;4997164;28;19909;-49
2022/11/07 03:54:29;;;;;;;;;;;8.70;67.80;;;3.87;100.00;95645.94;4992180;28;19916;-53
2022/11/07 03:57:01;;;;;;;;;;;8.70;67.90;;;3.84;100.00;95646.38;4976937;28;20360;-48
2022/11/07 03:59:26;;;;;;;;;;;8.60;67.80;;;3.80;100.00;95647.84;5008483;28;19909;-51
2022/11/07 04:01:52;;;;;;;;;;;8.60;67.80;;;3.75;100.00;95650.31;4975491;28;19920;-48
2022/11/07 04:04:18;;;;;;;;;;;8.60;67.90;;;3.69;100.00;95652.00;4992237;28;20444;-53
2022/11/07 04:06:47;;;;;;;;;;;8.50;67.80;;;3.67;100.00;95662.78;5009135;28;19996;-47
2022/11/07 04:09:12;;;;;;;;;;;8.50;67.80;;;3.65;100.00;95664.81;4992449;28;19909;-49
2022/11/07 04:17:18;;;;;;;;;;;8.40;67.90;;;3.60;100.00;95679.66;5005892;28;20386;-53
2022/11/07 04:19:54;;;;;;;;;;;8.40;67.90;;;3.57;100.00;95667.72;4996195;28;19964;-51
2022/11/07 04:22:24;;;;;;;;;;;8.30;68.00;;;3.58;100.00;95674.63;4992292;28;19925;-51
2022/11/07 04:24:50;;;;;;;;;;;8.30;68.10;;;3.56;100.00;95665.31;4973245;28;19922;-51
2022/11/07 04:30:21;;;;;;;;;;;8.30;68.10;;;3.61;100.00;95676.00;4973143;28;19980;-50
2022/11/07 04:32:51;;;;;;;;;;;8.30;68.20;;;3.59;100.00;95678.84;4961636;28;19909;-50
2022/11/07 04:35:19;;;;;;;;;;;8.30;68.30;;;3.57;100.00;95677.44;4954445;28;19917;-48
2022/11/07 04:37:46;;;;;;;;;;;8.30;68.30;;;3.53;100.00;95682.34;4972718;28;19917;-49
2022/11/07 04:40:21;;;;;;;;;;;8.30;68.30;;;3.49;100.00;95691.72;4959894;28;19913;-49
2022/11/07 04:42:49;;;;;;;;;;;8.30;68.10;;;3.45;100.00;95682.66;4982608;28;19992;-52
2022/11/07 04:45:18;;;;;;;;;;;8.20;68.10;;;3.42;100.00;95689.16;4956658;28;19959;-47
2022/11/07 04:47:44;;;;;;;;;;;8.20;68.20;;;3.38;100.00;95693.22;4958828;28;19955;-48
2022/11/07 04:50:13;;;;;;;;;;;8.20;68.20;;;3.37;100.00;95693.44;4961473;28;20008;-53
2022/11/07 04:52:39;;;;;;;;;;;8.10;68.90;;;3.34;100.00;95689.41;4957448;28;19909;-49
2022/11/07 04:55:15;;;;;;;;;;;8.10;68.20;;;3.34;100.00;95691.25;4961446;28;19909;-47
2022/11/07 04:57:41;;;;;;;;;;;8.10;68.30;;;3.35;100.00;95685.75;4956412;28;20258;-51
2022/11/07 05:00:07;;;;;;;;;;;8.10;68.40;;;3.34;100.00;95691.25;4969730;28;19917;-47
2022/11/07 05:02:36;;;;;;;;;;;8.10;68.40;;;3.33;100.00;95698.34;4956453;28;20291;-47
2022/11/07 05:05:02;;;;;;;;;;;8.10;68.40;;;3.29;100.00;95697.19;4987258;28;20283;-48
2022/11/07 05:07:27;;;;;;;;;;;8.00;68.30;;;3.19;100.00;95689.75;4992108;28;19917;-52
2022/11/07 05:09:56;;;;;;;;;;;8.00;68.20;;;3.16;100.00;95692.81;4972091;28;19933;-48
2022/11/07 05:12:22;;;;;;;;;;;8.00;68.20;;;3.17;100.00;95691.81;4967096;28;19909;-48
2022/11/07 05:14:57;;;;;;;;;;;8.00;68.30;;;3.12;100.00;95696.88;4992512;28;19910;-47
2022/11/07 05:17:29;;;;;;;;;;;7.90;68.30;;;3.14;100.00;95694.06;4973684;28;19910;-48
2022/11/07 05:19:57;;;;;;;;;;;7.90;68.40;;;3.18;100.00;95703.13;4982782;28;19909;-50
2022/11/07 05:25:13;;;;;;;;;;;7.90;68.50;;;3.27;100.00;95701.03;4997757;28;20809;-49
2022/11/07 05:27:41;;;;;;;;;;;7.90;68.70;;;3.27;100.00;95699.22;5012620;28;20325;-50
2022/11/07 05:30:12;;;;;;;;;;;7.90;68.60;;;3.23;100.00;95698.84;4993281;28;19909;-49
2022/11/07 05:32:37;;;;;;;;;;;7.90;68.60;;;3.24;100.00;95700.44;4982066;28;19916;-48
2022/11/07 05:35:07;;;;;;;;;;;7.90;68.60;;;3.29;100.00;95702.44;4974700;28;19909;-54
2022/11/07 05:37:35;;;;;;;;;;;8.00;68.70;;;3.34;100.00;95699.94;5012235;28;19935;-46
2022/11/07 05:40:01;;;;;;;;;;;8.00;68.70;;;3.34;100.00;95707.06;4994118;28;19917;-49
2022/11/07 05:42:30;;;;;;;;;;;8.00;68.70;;;3.38;100.00;95711.66;4982848;28;19914;-47
2022/11/07 05:44:56;;;;;;;;;;;8.10;68.80;;;3.44;100.00;95712.63;5006699;28;19912;-49
2022/11/07 05:47:25;;;;;;;;;;;8.10;68.80;;;3.44;100.00;95713.44;4977709;28;19915;-47
2022/11/07 05:49:53;;;;;;;;;;;8.10;68.70;;;3.47;100.00;95723.53;4976080;28;19913;-55
2022/11/07 05:52:22;;;;;;;;;;;8.10;68.70;;;3.41;100.00;95719.13;4993777;28;19913;-58
2022/11/07 05:54:54;;;;;;;;;;;8.10;68.60;;;3.34;100.00;95717.59;4989928;28;20328;-58
2022/11/07 05:57:19;;;;;;;;;;;8.10;68.40;;;3.29;100.00;95712.16;5011886;28;19940;-55
2022/11/07 05:59:45;;;;;;;;;;;8.10;68.40;;;3.26;100.00;95710.78;4999444;28;19944;-56
2022/11/07 06:02:23;;;;;;;;;;;8.00;68.30;;;3.18;100.00;95711.81;5011141;28;19940;-57
2022/11/07 06:04:48;;;;;;;;;;;8.00;68.30;;;3.17;100.00;95709.44;4993274;28;19966;-57
2022/11/07 06:07:20;;;;;;;;;;;8.00;68.30;;;3.19;100.00;95715.25;5000919;28;19917;-56
2022/11/07 06:09:46;;;;;;;;;;;8.00;68.40;;;3.18;100.00;95709.19;5006742;28;19947;-58
2022/11/07 06:12:15;;;;;;;;;;;8.00;68.40;;;3.24;100.00;95708.34;4981691;28;19968;-53
2022/11/07 06:14:43;;;;;;;;;;;8.00;68.60;;;3.32;100.00;95706.44;5005822;28;19913;-56
2022/11/07 06:17:12;;;;;;;;;;;8.00;68.60;;;3.41;100.00;95707.78;5003786;28;19912;-53
2022/11/07 06:19:41;;;;;;;;;;;8.10;68.80;;;3.55;100.00;95706.66;4994007;28;20334;-55
2022/11/07 06:22:08;;;;;;;;;;;8.10;68.80;;;3.65;100.00;95716.69;4975129;28;20008;-57
2022/11/07 06:24:37;;;;;;;;;;;8.20;68.90;;;3.68;100.00;95719.69;4980803;28;19910;-56
2022/11/07 06:27:03;;;;;;;;;;;8.30;68.90;;;3.73;100.00;95734.88;4991860;28;19909;-56
2022/11/07 06:29:29;;;;;;;;;;;8.30;68.70;;;3.74;100.00;95727.75;4957450;28;19909;-56
2022/11/07 06:31:54;;;;;;;;;;;8.40;68.70;;;3.75;100.00;95729.38;4973796;28;20269;-55
2022/11/07 06:34:26;;;;;;;;;;;8.40;68.60;;;3.75;100.00;95729.38;4957556;28;19913;-58
2022/11/07 06:37:04;;;;;;;;;;;8.50;68.50;;;3.75;100.00;95735.44;4978479;28;19917;-54
2022/11/07 06:39:33;;;;;;;;;;;8.50;68.40;;;3.76;100.00;95738.88;4991557;28;19913;-58
2022/11/07 06:42:01;;;;;;;;;;;8.50;68.30;;;3.74;100.00;95741.75;4990051;28;20287;-58
2022/11/07 06:44:30;;;;;;;;;;;8.50;68.10;;;3.70;100.00;95745.84;4929794;28;24086;-55
2022/11/07 06:46:59;;;;;;;;;;;8.60;68.10;;;3.70;100.00;95743.22;4973211;28;19913;-54
2022/11/07 06:49:27;;;;;;;;;;;8.60;68.10;;;3.74;100.00;95740.94;4991423;28;19909;-56
2022/11/07 06:51:53;;;;;;;;;;;8.60;68.10;;;3.85;100.00;95756.00;4973680;28;20308;-56
2022/11/07 06:54:19;;;;;;;;;;;8.60;68.20;;;3.94;100.00;95752.88;4972974;28;19914;-56
2022/11/07 06:56:44;;;;;;;;;;;8.70;68.40;;;4.00;100.00;95743.28;4957610;28;19916;-57
2022/11/07 06:59:10;;;;;;;;;;;8.70;68.30;;;4.00;100.00;95758.31;4972526;28;20356;-55
2022/11/07 07:01:36;;;;;;;;;;;8.80;68.30;;;4.00;100.00;95760.94;4990545;28;20444;-57
2022/11/07 07:04:02;;;;;;;;;;;8.80;68.20;;;4.03;100.00;95763.94;4957818;28;19909;-57
2022/11/07 07:06:38;;;;;;;;;;;8.90;68.30;;;4.10;100.00;95769.94;4973062;28;19909;-57
2022/11/07 07:09:05;;;;;;;;;;;8.90;68.20;;;4.17;100.00;95769.91;4970532;28;19963;-56
2022/11/07 07:11:36;;;;;;;;;;;9.00;68.30;;;4.22;100.00;95769.22;4956341;28;19913;-58
2022/11/07 07:14:05;;;;;;;;;;;9.00;68.20;;;4.23;100.00;95781.38;4983909;28;19913;-56
2022/11/07 07:16:31;;;;;;;;;;;9.10;68.20;;;4.30;100.00;95782.13;4990054;28;19952;-56
2022/11/07 07:18:57;;;;;;;;;;;9.10;68.90;;;4.39;100.00;95784.25;4968509;28;19909;-56
2022/11/07 07:21:25;;;;;;;;;;;9.20;68.10;;;4.48;100.00;95789.22;4973100;28;20406;-57
2022/11/07 07:23:55;;;;;;;;;;;9.30;68.00;;;4.57;100.00;95788.69;4989131;28;19952;-58
2022/11/07 07:26:21;;;;;;;;;;;9.40;68.10;;;4.71;100.00;95789.34;4957485;28;19917;-58
2022/11/07 07:28:48;;;;;;;;;;;9.50;68.10;;;4.79;100.00;95794.31;4989253;28;20742;-58
2022/11/07 07:31:13;;;;;;;;;;;9.60;68.10;;;4.93;99.36;95799.44;4975874;28;19960;-54
2022/11/07 07:33:45;;;;;;;;;;;9.70;68.10;;;5.05;99.57;95793.16;4990991;28;19910;-54
2022/11/07 07:36:11;;;;;;;;;;;9.90;68.00;;;5.20;99.48;95798.06;4956823;28;19913;-54
2022/11/07 07:38:38;;;;;;;;;;;10.00;68.00;;;5.27;98.78;95800.59;4990828;28;19910;-55
2022/11/07 07:41:05;;;;;;;;;;;10.10;67.90;;;5.36;98.54;95806.34;4971978;28;20354;-57
2022/11/07 07:43:32;;;;;;;;;;;10.30;67.80;;;5.47;98.04;95805.56;4990904;28;19910;-58
2022/11/07 07:46:07;;;;;;;;;;;10.40;67.70;;;5.59;97.85;95797.69;4993441;28;19936;-58
2022/11/07 07:48:33;;;;;;;;;;;10.60;67.60;;;5.74;98.35;95804.13;4977352;28;20265;-56
2022/11/07 07:50:59;;;;;;;;;;;10.80;67.40;;;5.88;97.33;95811.84;4957515;28;19920;-55
2022/11/07 07:53:25;;;;;;;;;;;10.90;67.20;;;6.00;96.77;95800.25;4945955;28;19909;-55
2022/11/07 07:55:58;;;;;;;;;;;11.10;67.10;;;6.16;95.83;95805.91;4977284;28;20375;-57
2022/11/07 07:58:27;;;;;;;;;;;11.30;67.00;;;6.33;95.09;95812.09;4993334;28;19910;-54
2022/11/07 08:00:57;;;;;;;;;;;11.50;66.70;;;6.48;94.56;95814.25;4980416;28;20316;-58
2022/11/07 08:03:26;;;;;;;;;;;11.70;66.70;;;6.67;94.84;95806.97;4975095;28;20376;-58
2022/11/07 08:05:56;;;;;;;;;;;11.80;66.50;;;6.81;91.21;95808.31;4973267;28;20304;-57
2022/11/07 08:08:25;;;;;;;;;;;12.00;66.40;;;7.00;92.10;95808.16;4976948;28;19909;-54
2022/11/07 08:11:03;;;;;;;;;;;12.30;66.20;;;7.23;90.00;95815.97;4975353;28;19963;-54
2022/11/07 08:13:30;;;;;;;;;;;12.60;66.00;;;7.39;84.65;95815.22;4973638;28;19916;-55
2022/11/07 08:15:56;;;;;;;;;;;12.80;65.80;;;7.64;85.40;95814.03;4991050;28;19913;-56
2022/11/07 08:18:23;;;;;;;;;;;13.10;65.50;;;7.88;83.97;95812.03;4992448;28;19909;-56
2022/11/07 08:20:55;;;;;;;;;;;13.40;65.20;;;8.21;81.67;95815.72;4958765;28;20499;-53
2022/11/07 08:23:22;;;;;;;;;;;13.90;64.80;;;8.63;79.95;95812.59;4993048;28;19917;-55
2022/11/07 08:26:03;;;;;;;;;;;14.40;64.40;;;9.08;76.35;95809.69;4976640;28;19910;-56
2022/11/07 08:28:32;;;;;;;;;;;15.00;64.00;;;9.54;74.91;95809.34;4973331;28;20365;-56
2022/11/07 08:31:09;;;;;;;;;;;15.50;63.50;;;10.06;72.00;95811.34;4991347;28;19910;-53
2022/11/07 08:33:35;;;;;;;;;;;16.10;63.10;;;10.50;69.88;95808.47;4992062;28;19958;-56
2022/11/07 08:36:03;;;;;;;;;;;16.60;62.60;;;10.85;70.32;95800.66;4887182;28;25674;-56
2022/11/07 08:38:31;;;;;;;;;;;17.00;62.20;;;11.29;66.90;95805.59;4973455;28;20396;-55
2022/11/07 08:40:58;;;;;;;;;;;17.50;61.80;;;11.72;64.68;95806.22;4991076;28;19940;-59
2022/11/07 08:43:25;;;;;;;;;;;18.00;61.30;;;12.20;64.45;95805.97;5008585;28;19909;-59
2022/11/07 08:45:54;;;;;;;;;;;18.60;60.80;;;12.58;59.51;95799.19;4992236;28;19948;-57
2022/11/07 08:48:21;;;;;;;;;;;19.10;60.10;;;13.07;61.38;95806.53;4991401;28;20335;-58
2022/11/07 08:50:53;;;;;;;;;;;19.70;59.60;;;13.56;58.38;95800.38;4988548;28;19917;-59
2022/11/07 08:53:20;;;;;;;;;;;20.20;59.90;;;13.97;57.23;95799.28;4978768;28;19913;-57
2022/11/07 08:55:46;;;;;;;;;;;20.70;58.80;;;14.29;56.62;95799.53;4992024;28;19913;-57
2022/11/07 08:58:14;;;;;;;;;;;21.00;58.40;;;14.48;58.08;95794.28;4992199;28;19910;-57
2022/11/07 09:01:06;;;;;;;;;;;21.30;58.00;;;14.74;55.28;95792.13;4991885;28;19917;-57
2022/11/07 09:03:37;;;;;;;;;;;21.60;57.60;;;14.96;55.59;95796.97;4992906;28;19963;-57
2022/11/07 09:06:04;;;;;;;;;;;21.90;57.10;;;15.22;54.21;95797.44;4971618;28;19910;-58
2022/11/07 09:08:31;;;;;;;;;;;22.20;56.50;;;15.44;53.21;95796.88;4986589;28;19910;-57
2022/11/07 09:11:02;;;;;;;;;;;22.40;56.10;;;15.74;53.90;95800.25;4984500;28;20012;-57
2022/11/07 09:13:30;;;;;;;;;;;22.60;55.90;;;16.03;52.27;95801.94;4988410;28;19914;-58
2022/11/07 09:16:11;;;;;;;;;;;22.80;55.60;;;15.75;50.39;95796.47;4991772;28;19913;-58
2022/11/07 09:18:38;;;;;;;;;;;22.90;54.60;;;15.90;50.41;95796.25;4979525;28;19913;-58
2022/11/07 09:21:04;;;;;;;;;;;23.00;54.20;;;15.94;51.24;95802.59;4988032;28;19925;-49
2022/11/07 09:23:30;;;;;;;;;;;23.00;53.80;;;16.05;51.66;95797.09;4987529;28;19928;-53
2022/11/07 09:26:00;;;;;;;;;;;23.00;53.40;;;16.34;50.81;95791.50;5008315;28;19913;-51
2022/11/07 09:28:29;;;;;;;;;;;23.00;53.40;;;16.42;50.44;95798.84;4991823;28;19913;-53
2022/11/07 09:30:59;;;;;;;;;;;23.20;53.10;;;16.21;49.68;95794.94;4991589;28;19949;-53
2022/11/07 09:33:26;;;;;;;;;;;23.30;52.40;;;16.35;52.09;95796.56;4991660;28;20004;-54
2022/11/07 09:35:53;;;;;;;;;;;23.40;51.90;;;16.43;51.08;95793.19;4990919;28;20462;-51
2022/11/07 09:38:21;;;;;;;;;;;23.40;52.10;;;16.28;50.28;95793.47;4991730;28;19909;-53
2022/11/07 09:41:24;;;;;;;;;;;23.60;51.90;;;16.32;51.07;95788.28;4990221;28;19913;-53
2022/11/07 09:44:29;;;;;;;;;;;23.70;51.10;;;16.70;51.49;95785.44;4974293;28;19933;-50
2022/11/07 09:47:21;;;;;;;;;;;23.90;50.90;;;17.11;53.22;95796.25;4989616;28;19909;-52
2022/11/07 09:49:52;;;;;;;;;;;24.20;50.90;;;17.13;49.79;95794.03;4990466;28;19916;-52
2022/11/07 09:52:35;;;;;;;;;;;24.40;50.40;;;17.12;50.29;95800.53;4991353;28;19913;-53
2022/11/07 09:55:34;;;;;;;;;;;24.60;50.00;;;17.23;48.42;95798.41;4992678;28;19935;-53
2022/11/07 09:58:21;;;;;;;;;;;24.80;49.70;;;17.06;49.81;95794.44;4992343;28;19917;-55
2022/11/07 10:00:50;;;;;;;;;;;25.00;48.30;;;16.76;48.94;95800.41;4983854;28;19964;-51
2022/11/07 10:03:16;;;;;;;;;;;24.90;47.70;;;16.84;48.09;95797.84;4992204;28;19910;-53
2022/11/07 10:06:27;;;;;;;;;;;24.80;46.70;;;17.04;46.83;95798.53;4991096;28;19937;-52
2022/11/07 10:09:40;;;;;;;;;;;24.80;46.90;;;16.69;49.99;95803.47;4990334;28;19979;-52
2022/11/07 10:12:50;;;;;;;;;;;24.80;45.80;;;16.66;49.01;95802.19;4971472;28;19909;-55
2022/11/07 10:16:11;;;;;;;;;;;24.50;46.10;;;16.54;49.87;95799.16;4992107;28;20418;-50
2022/11/07 10:18:55;;;;;;;;;;;24.10;46.40;;;16.55;49.40;95795.41;4987491;28;20366;-54
2022/11/07 10:22:15;;;;;;;;;;;23.80;46.30;;;16.75;51.71;95805.00;5002832;28;19924;-57
2022/11/07 10:25:05;;;;;;;;;;;23.80;46.60;;;16.84;49.42;95792.47;4992732;28;19949;-53
2022/11/07 10:27:34;;;;;;;;;;;23.80;46.60;;;16.68;49.09;95806.47;5007818;28;19909;-54
2022/11/07 10:30:01;;;;;;;;;;;23.90;46.30;;;16.76;50.13;95795.84;4989171;28;19955;-54
2022/11/07 10:32:51;;;;;;;;;;;24.00;46.00;;;16.62;49.54;95792.31;4974551;28;19917;-52
2022/11/07 10:35:28;;;;;;;;;;;24.20;45.60;;;16.84;48.91;95794.34;4992577;28;19952;-57
2022/11/07 10:38:00;;;;;;;;;;;24.30;45.30;;;16.91;48.85;95797.44;5011099;28;19915;-51
2022/11/07 10:40:39;;;;;;;;;;;24.30;44.80;;;16.79;49.15;95792.56;4993684;28;20036;-51
2022/11/07 10:43:14;;;;;;;;;;;24.50;44.90;;;16.73;50.20;95793.72;4982306;28;19994;-56
2022/11/07 10:45:41;;;;;;;;;;;24.60;44.40;;;16.86;50.77;95786.81;5010708;28;19913;-52
2022/11/07 10:48:11;;;;;;;;;;;24.70;44.30;;;17.41;48.12;95778.63;4992481;28;19966;-54
2022/11/07 10:50:38;;;;;;;;;;;24.90;44.70;;;17.75;50.40;95780.03;4993874;28;19918;-53
2022/11/07 10:53:08;;;;;;;;;;;25.10;45.00;;;18.03;47.39;95776.16;4992841;28;20472;-54
2022/11/07 10:55:54;;;;;;;;;;;25.30;45.10;;;18.14;46.29;95784.75;4974897;28;20299;-53
2022/11/07 10:58:41;;;;;;;;;;;25.60;45.20;;;18.28;45.67;95779.31;4958059;28;20407;-53
2022/11/07 11:01:11;;;;;;;;;;;25.80;45.10;;;18.33;45.70;95775.69;4987451;28;19959;-51
2022/11/07 11:03:46;;;;;;;;;;;26.00;44.80;;;18.21;44.72;95768.19;4977027;28;19992;-53
2022/11/07 11:06:29;;;;;;;;;;;26.20;44.20;;;18.19;46.60;95770.38;4976878;28;20000;-55
2022/11/07 11:08:57;;;;;;;;;;;26.30;43.30;;;18.20;46.35;95774.66;4993754;28;20280;-55
2022/11/07 11:11:32;;;;;;;;;;;26.30;43.30;;;18.25;46.21;95764.53;5008475;28;19909;-53
2022/11/07 11:14:19;;;;;;;;;;;26.30;43.20;;;18.03;45.43;95754.59;4993604;28;19948;-54
2022/11/07 11:16:57;;;;;;;;;;;26.40;42.60;;;18.00;48.42;95768.69;4992585;28;19915;-53
2022/11/07 11:19:29;;;;;;;;;;;26.50;42.30;;;18.10;46.02;95754.16;4975480;28;19935;-53
2022/11/07 11:22:09;;;;;;;;;;;26.50;42.30;;;17.94;47.14;95750.25;5006653;28;19916;-54
2022/11/07 11:24:38;;;;;;;;;;;26.50;42.00;;;18.36;46.09;95748.88;4997678;28;19909;-55
2022/11/07 11:27:32;;;;;;;;;;;26.50;42.10;;;18.43;45.90;95748.47;5014939;28;19909;-55
2022/11/07 11:30:10;;;;;;;;;;;26.60;42.20;;;18.39;45.93;95744.78;4979904;28;19956;-54
2022/11/07 11:33:05;;;;;;;;;;;26.70;41.80;;;18.44;46.35;95740.06;5013520;28;19956;-57
2022/11/07 11:35:48;;;;;;;;;;;26.80;41.80;;;18.82;45.21;95747.69;4996926;28;19909;-54
2022/11/07 11:38:36;;;;;;;;;;;27.00;42.00;;;18.84;45.46;95736.59;4997584;28;20372;-56
2022/11/07 11:41:22;;;;;;;;;;;27.20;41.70;;;19.09;44.04;95741.25;4980103;28;19916;-54
2022/11/07 11:44:17;;;;;;;;;;;27.40;41.80;;;19.27;43.16;95735.88;5003918;28;19909;-53
2022/11/07 11:46:56;;;;;;;;;;;27.50;41.70;;;18.98;43.27;95741.84;5012133;28;19909;-54
2022/11/07 11:49:54;;;;;;;;;;;27.60;41.00;;;18.78;43.06;95737.84;4996930;28;19916;-56
2022/11/07 11:52:22;;;;;;;;;;;27.70;40.30;;;19.00;45.97;95737.75;4996893;28;19917;-52
2022/11/07 11:54:56;;;;;;;;;;;27.80;40.40;;;19.09;45.78;95740.47;4981882;28;20000;-55
2022/11/07 11:57:49;;;;;;;;;;;28.00;40.30;;;18.74;44.23;95732.28;4993362;28;20379;-54
2022/11/07 12:00:20;;;;;;;;;;;28.20;39.30;;;18.97;43.93;95737.59;5005205;28;19948;-55